Time;durP1;ratioP1;P1;durP2;ratioP2;P2;SDS_P1;SDS_P2;PMS_P1;PMS_P2;Temp;Humidity;BMP_temperature;BMP_pressure;BME280_temperature;BME280_humidity;BME280_pressure;Samples;Min_cycle;Max_cycle;Signal;HPM_P1;HPM_P2
2022/12/25 00:01:21;;;;;;;1.43;1.33;;;;;;;9.95;60.66;95451.25;4951976;28;21029;-59
2022/12/25 00:03:49;;;;;;;2.47;0.60;;;;;;;10.00;60.38;95453.94;4952930;29;20475;-64
2022/12/25 00:06:16;;;;;;;2.47;1.23;;;;;;;10.12;60.36;95451.28;4939815;29;20456;-58
2022/12/25 00:08:43;;;;;;;0.87;0.83;;;;;;;10.02;60.83;95456.31;4952420;29;20454;-60
2022/12/25 00:11:14;;;;;;;0.37;0.37;;;;;;;9.74;61.90;95454.59;4952240;29;20449;-60
2022/12/25 00:13:41;;;;;;;0.20;0.20;;;;;;;9.79;62.16;95456.47;4951688;29;20460;-65
2022/12/25 00:16:14;;;;;;;0.00;0.00;;;;;;;9.96;61.84;95457.28;4951270;29;20822;-63
2022/12/25 00:18:41;;;;;;;0.07;0.07;;;;;;;9.93;61.83;95466.41;4951809;29;20462;-58
2022/12/25 00:21:09;;;;;;;1.20;1.07;;;;;;;9.66;62.95;95473.28;4951728;29;20491;-59
2022/12/25 00:23:36;;;;;;;0.00;0.00;;;;;;;9.75;63.17;95478.91;4951496;29;20546;-64
2022/12/25 00:26:12;;;;;;;0.23;0.23;;;;;;;9.56;63.68;95474.91;4951641;29;20475;-64
2022/12/25 00:28:39;;;;;;;0.10;0.10;;;;;;;9.48;64.02;95475.28;4951657;29;20446;-60
2022/12/25 00:31:11;;;;;;;1.60;1.07;;;;;;;9.94;62.69;95478.47;4951697;29;20440;-60
2022/12/25 00:33:40;;;;;;;0.40;0.37;;;;;;;9.78;62.92;95486.31;4951569;29;20459;-59
2022/12/25 00:36:08;;;;;;;2.57;0.87;;;;;;;10.05;62.41;95485.44;4951377;28;20483;-64
2022/12/25 00:38:36;;;;;;;0.13;0.13;;;;;;;10.04;62.59;95485.69;4951541;29;20443;-63
2022/12/25 00:41:05;;;;;;;0.10;0.10;;;;;;;10.04;61.81;95481.25;4951488;29;20450;-62
2022/12/25 00:43:32;;;;;;;0.87;0.83;;;;;;;10.13;62.21;95486.91;4951688;29;20518;-67
2022/12/25 00:46:01;;;;;;;1.00;0.57;;;;;;;10.07;62.02;95480.75;4951172;29;20483;-68
2022/12/25 00:48:29;;;;;;;0.00;0.00;;;;;;;10.07;61.91;95491.25;4951391;29;21552;-62
2022/12/25 00:50:58;;;;;;;0.00;0.00;;;;;;;10.11;62.49;95494.19;4950978;29;20439;-66
2022/12/25 00:53:26;;;;;;;1.00;0.40;;;;;;;10.13;62.04;95492.94;4938827;29;20522;-59
2022/12/25 00:55:55;;;;;;;0.10;0.10;;;;;;;10.15;62.04;95493.50;4951076;29;20515;-61
2022/12/25 00:58:23;;;;;;;2.53;1.07;;;;;;;10.08;62.13;95494.66;4950641;29;20451;-59
2022/12/25 01:00:50;;;;;;;0.50;0.50;;;;;;;10.29;61.95;95494.00;4951139;29;20456;-68
2022/12/25 01:03:17;;;;;;;0.00;0.00;;;;;;;10.22;61.80;95482.84;4950816;29;20909;-61
2022/12/25 01:05:54;;;;;;;0.03;0.03;;;;;;;10.15;62.43;95484.84;4951352;29;20559;-59
2022/12/25 01:08:21;;;;;;;0.00;0.00;;;;;;;9.95;62.61;95487.09;4951038;29;20473;-66
2022/12/25 01:10:59;;;;;;;0.57;0.57;;;;;;;10.06;62.66;95492.28;4950932;29;20444;-66
2022/12/25 01:13:27;;;;;;;0.00;0.00;;;;;;;10.15;61.99;95488.25;4951193;29;20976;-59
2022/12/25 01:15:54;;;;;;;0.00;0.00;;;;;;;9.96;62.78;95484.25;4951633;29;20447;-62
2022/12/25 01:18:22;;;;;;;1.07;0.30;;;;;;;10.10;62.05;95490.81;4950818;29;20455;-62
2022/12/25 01:20:50;;;;;;;0.20;0.20;;;;;;;10.07;61.78;95475.53;4950669;29;20439;-66
2022/12/25 01:23:17;;;;;;;0.00;0.00;;;;;;;10.05;62.08;95482.81;4950920;29;20443;-61
2022/12/25 01:25:44;;;;;;;0.77;0.77;;;;;;;9.93;61.98;95489.16;4950722;29;20503;-59
2022/12/25 01:28:11;;;;;;;0.00;0.00;;;;;;;9.83;62.13;95483.78;4950729;29;20811;-57
2022/12/25 01:30:38;;;;;;;0.00;0.00;;;;;;;9.93;62.61;95483.91;4950876;29;20432;-65
2022/12/25 01:33:05;;;;;;;0.00;0.00;;;;;;;9.75;62.37;95486.75;4950461;29;20450;-63
2022/12/25 01:35:32;;;;;;;0.00;0.00;;;;;;;9.66;61.97;95482.94;4951224;29;20475;-64
2022/12/25 01:37:59;;;;;;;0.20;0.20;;;;;;;10.01;61.73;95480.94;4950401;29;20548;-60
2022/12/25 01:40:26;;;;;;;0.00;0.00;;;;;;;9.70;62.15;95482.25;4950973;29;20451;-59
2022/12/25 01:42:53;;;;;;;0.00;0.00;;;;;;;9.79;61.59;95487.88;4951005;29;20463;-63
2022/12/25 01:45:43;;;;;;;0.57;0.53;;;;;;;9.66;61.65;95488.16;4940067;29;20497;-64
2022/12/25 01:48:17;;;;;;;0.07;0.07;;;;;;;9.69;61.67;95474.63;4950682;29;20479;-68
2022/12/25 01:50:50;;;;;;;0.27;0.27;;;;;;;9.75;61.46;95481.53;4950376;29;20450;-60
2022/12/25 01:53:16;;;;;;;0.00;0.00;;;;;;;9.70;61.71;95484.88;4950741;28;20452;-64
2022/12/25 01:55:47;;;;;;;0.00;0.00;;;;;;;9.62;61.90;95487.03;4951201;29;20536;-60
2022/12/25 01:58:15;;;;;;;1.40;1.30;;;;;;;9.72;61.46;95490.66;4950556;29;20821;-61
2022/12/25 02:00:42;;;;;;;0.00;0.00;;;;;;;9.59;61.85;95487.53;4950411;29;20502;-66
2022/12/25 02:03:28;;;;;;;0.27;0.27;;;;;;;9.54;62.36;95488.25;4950923;28;20809;-63
2022/12/25 02:05:57;;;;;;;0.77;0.70;;;;;;;9.80;61.08;95489.44;4949650;29;20862;-62
2022/12/25 02:08:24;;;;;;;0.43;0.43;;;;;;;9.79;61.24;95493.13;4950453;29;20451;-69
2022/12/25 02:10:51;;;;;;;0.40;0.27;;;;;;;9.81;60.73;95491.06;4949863;29;20499;-62
2022/12/25 02:13:19;;;;;;;0.10;0.10;;;;;;;9.71;61.35;95496.09;4950316;29;21001;-64
2022/12/25 02:16:15;;;;;;;0.10;0.10;;;;;;;9.84;60.91;95494.00;4950253;28;20440;-65
2022/12/25 02:18:48;;;;;;;0.20;0.20;;;;;;;9.81;61.08;95485.81;4940435;29;20510;-60
2022/12/25 02:21:18;;;;;;;0.00;0.00;;;;;;;9.84;61.10;95485.34;4950699;29;20460;-61
2022/12/25 02:24:22;;;;;;;0.00;0.00;;;;;;;9.59;61.52;95484.91;4949794;28;20490;-58
2022/12/25 02:27:10;;;;;;;0.00;0.00;;;;;;;9.58;62.21;95491.19;4954092;29;20455;-66
2022/12/25 02:29:58;;;;;;;0.00;0.00;;;;;;;9.65;61.74;95478.75;4953628;29;20462;-61
2022/12/25 02:32:31;;;;;;;7.43;0.50;;;;;;;9.76;61.22;95486.50;4953254;29;20451;-61
2022/12/25 02:35:01;;;;;;;0.53;0.40;;;;;;;9.88;60.92;95486.47;4953327;29;20958;-66
2022/12/25 02:37:31;;;;;;;0.00;0.00;;;;;;;9.56;61.59;95486.16;4953364;29;20451;-57
2022/12/25 02:40:23;;;;;;;0.07;0.07;;;;;;;9.63;60.45;95486.03;4952958;29;21045;-58
2022/12/25 03:08:52;;;;;;;0.20;0.20;;;;;;;9.35;61.43;95518.19;4952693;29;20847;-59
2022/12/25 03:11:31;;;;;;;1.80;0.40;;;;;;;9.45;61.52;95515.00;4952744;29;20506;-56
2022/12/25 03:16:54;;;;;;;0.00;0.00;;;;;;;9.45;61.66;95525.47;4952898;29;20483;-62
2022/12/25 03:27:53;;;;;;;0.00;0.00;;;;;;;9.59;60.85;95540.66;4955214;29;20447;-64
2022/12/25 03:33:17;;;;;;;0.00;0.00;;;;;;;9.56;60.30;95532.47;4952795;29;20451;-61
2022/12/25 03:36:38;;;;;;;0.00;0.00;;;;;;;9.71;60.61;95543.19;4953252;28;20442;-64
2022/12/25 04:38:05;;;;;;;0.37;0.37;;;;;;;8.99;60.86;95592.50;4951355;29;20506;-58
2022/12/25 04:40:32;;;;;;;0.20;0.20;;;;;;;9.08;60.94;95588.53;4951444;29;20512;-66
2022/12/25 04:42:58;;;;;;;0.00;0.00;;;;;;;8.66;61.23;95587.06;4951424;29;20522;-60
2022/12/25 04:45:25;;;;;;;0.20;0.20;;;;;;;8.73;61.44;95594.78;4951236;29;20530;-58
2022/12/25 04:47:52;;;;;;;0.30;0.20;;;;;;;8.79;62.10;95597.28;4950837;28;20474;-65
2022/12/25 04:50:19;;;;;;;0.60;0.60;;;;;;;8.65;62.54;95598.50;4951063;29;20526;-63
2022/12/25 04:52:46;;;;;;;0.33;0.33;;;;;;;8.60;62.98;95606.22;4950799;29;20208;-66
2022/12/25 04:55:12;;;;;;;0.10;0.10;;;;;;;8.72;62.22;95612.25;4951241;29;20547;-62
2022/12/25 04:57:39;;;;;;;0.20;0.20;;;;;;;8.73;61.99;95606.03;4951012;29;20218;-62
2022/12/25 05:00:07;;;;;;;0.00;0.00;;;;;;;8.57;63.25;95618.94;4950752;29;20447;-62
2022/12/25 05:02:33;;;;;;;0.00;0.00;;;;;;;8.72;62.84;95617.47;4950535;29;20204;-61
2022/12/25 05:05:01;;;;;;;0.00;0.00;;;;;;;8.66;62.71;95607.94;4951176;29;20486;-64
2022/12/25 05:07:28;;;;;;;0.00;0.00;;;;;;;8.49;63.66;95619.25;4950701;29;21085;-66
2022/12/25 05:09:56;;;;;;;0.00;0.00;;;;;;;8.87;62.63;95619.66;4950973;29;20447;-58
2022/12/25 05:12:23;;;;;;;0.77;0.67;;;;;;;8.52;63.46;95606.53;4950883;29;21197;-62
2022/12/25 05:14:49;;;;;;;0.28;0.28;;;;;;;8.72;63.13;95609.63;4950972;29;20451;-67
2022/12/25 05:17:16;;;;;;;0.13;0.13;;;;;;;8.70;63.51;95608.28;4950743;29;20212;-63
2022/12/25 05:19:43;;;;;;;0.00;0.00;;;;;;;8.70;63.06;95619.53;4951119;29;20891;-62
2022/12/25 05:22:10;;;;;;;0.05;0.05;;;;;;;8.67;63.49;95611.34;4951065;29;20881;-61
2022/12/25 05:24:37;;;;;;;0.45;0.35;;;;;;;8.69;62.61;95617.13;4950794;29;20652;-56
2022/12/25 05:27:04;;;;;;;0.73;0.40;;;;;;;8.80;63.00;95619.78;4950570;29;20755;-66
2022/12/25 05:29:30;;;;;;;0.00;0.00;;;;;;;8.80;61.91;95617.16;4951023;29;20455;-62
2022/12/25 05:31:57;;;;;;;0.47;0.45;;;;;;;8.91;61.63;95621.59;4950421;29;20462;-60
2022/12/25 05:34:24;;;;;;;1.98;1.10;;;;;;;8.87;61.63;95625.69;4963171;28;20195;-60
2022/12/25 05:36:51;;;;;;;0.03;0.03;;;;;;;8.93;61.38;95630.00;4951430;28;20203;-59
2022/12/25 05:39:18;;;;;;;0.00;0.00;;;;;;;8.79;61.45;95625.22;4951265;29;20447;-66
2022/12/25 05:41:45;;;;;;;0.27;0.27;;;;;;;8.77;61.38;95630.69;4951341;29;20662;-64
2022/12/25 05:44:12;;;;;;;0.47;0.47;;;;;;;8.95;60.86;95627.97;4951666;29;20542;-59
2022/12/25 05:46:38;;;;;;;0.00;0.00;;;;;;;8.91;60.62;95621.59;4950981;29;20479;-60
2022/12/25 05:49:05;;;;;;;0.00;0.00;;;;;;;8.72;60.76;95630.53;4951750;29;20566;-66
2022/12/25 05:51:32;;;;;;;0.10;0.10;;;;;;;8.76;60.40;95628.28;4946691;29;20211;-62
2022/12/25 05:53:59;;;;;;;0.00;0.00;;;;;;;9.09;59.39;95631.94;4943884;29;20440;-61
2022/12/25 05:56:27;;;;;;;0.20;0.20;;;;;;;9.02;59.47;95643.53;4948435;29;20250;-58
2022/12/25 05:58:54;;;;;;;0.00;0.00;;;;;;;9.09;58.63;95634.53;4945238;28;20502;-61
2022/12/25 06:01:23;;;;;;;0.00;0.00;;;;;;;9.34;58.39;95636.13;4954106;29;21053;-63
2022/12/25 06:03:51;;;;;;;1.45;1.08;;;;;;;9.28;58.41;95637.84;4955020;29;20452;-62
2022/12/25 06:06:18;;;;;;;0.00;0.00;;;;;;;9.09;58.62;95652.84;4952544;29;20650;-61
2022/12/25 06:08:45;;;;;;;0.13;0.13;;;;;;;9.04;58.36;95652.75;4953438;29;20787;-66
2022/12/25 06:11:13;;;;;;;0.20;0.20;;;;;;;9.17;58.24;95654.34;4942644;29;20877;-61
2022/12/25 06:13:42;;;;;;;0.17;0.17;;;;;;;9.26;57.63;95660.00;4953683;29;20578;-61
2022/12/25 06:16:10;;;;;;;0.93;0.40;;;;;;;9.37;57.72;95653.97;4953767;29;20468;-66
2022/12/25 06:18:44;;;;;;;0.00;0.00;;;;;;;9.23;57.78;95672.50;4953435;29;20502;-56
2022/12/25 06:21:12;;;;;;;0.10;0.10;;;;;;;9.21;57.25;95674.56;4953448;29;21316;-56
2022/12/25 06:23:40;;;;;;;0.30;0.30;;;;;;;9.18;57.50;95680.25;4952832;29;20866;-62
2022/12/25 06:26:13;;;;;;;0.00;0.00;;;;;;;9.19;57.13;95681.84;4949491;29;20495;-58
2022/12/25 06:28:41;;;;;;;0.00;0.00;;;;;;;9.29;56.90;95683.88;4953481;29;21005;-62
2022/12/25 06:31:10;;;;;;;0.00;0.00;;;;;;;9.33;58.58;95686.84;4953548;29;20470;-57
2022/12/25 06:33:37;;;;;;;0.67;0.67;;;;;;;9.28;57.95;95684.13;4953084;29;20451;-63
2022/12/25 06:36:14;;;;;;;0.20;0.20;;;;;;;9.69;57.45;95686.59;4948964;29;20504;-56
2022/12/25 06:38:40;;;;;;;0.67;0.67;;;;;;;9.81;56.34;95684.75;4949951;29;21306;-61
2022/12/25 06:41:13;;;;;;;0.00;0.00;;;;;;;9.82;55.73;95686.31;4952485;29;20805;-60
2022/12/25 06:43:40;;;;;;;0.00;0.00;;;;;;;9.51;55.75;95689.31;4946942;29;20539;-57
2022/12/25 06:46:10;;;;;;;0.00;0.00;;;;;;;9.79;55.92;95692.03;4946437;29;20484;-59
2022/12/25 06:48:39;;;;;;;0.93;0.60;;;;;;;9.88;55.71;95703.72;4949062;29;20526;-60
2022/12/25 06:51:06;;;;;;;0.93;0.87;;;;;;;9.71;56.81;95700.22;4952644;29;20443;-59
2022/12/25 06:53:33;;;;;;;2.57;1.60;;;;;;;10.00;56.95;95710.53;4950062;29;20526;-55
2022/12/25 06:56:14;;;;;;;0.20;0.20;;;;;;;10.10;55.25;95702.91;4946302;29;20888;-64
2022/12/25 06:58:44;;;;;;;0.00;0.00;;;;;;;9.96;54.82;95716.47;4955132;29;20459;-55
2022/12/25 07:01:23;;;;;;;0.00;0.00;;;;;;;10.08;55.12;95717.22;4955133;29;20485;-51
2022/12/25 07:03:54;;;;;;;0.00;0.00;;;;;;;10.02;54.89;95723.38;4957841;29;20450;-56
2022/12/25 07:06:21;;;;;;;0.00;0.00;;;;;;;10.02;54.97;95729.41;4956226;29;20478;-63
2022/12/25 07:08:48;;;;;;;0.00;0.00;;;;;;;10.11;54.69;95729.88;4953565;29;20911;-58
2022/12/25 07:11:15;;;;;;;0.37;0.37;;;;;;;10.19;55.31;95740.81;4951790;28;20490;-65
2022/12/25 07:13:42;;;;;;;0.07;0.07;;;;;;;10.40;54.18;95739.34;4952986;29;20459;-55
2022/12/25 07:16:11;;;;;;;0.13;0.13;;;;;;;10.31;55.09;95740.75;4952626;29;20873;-62
2022/12/25 07:18:39;;;;;;;0.00;0.00;;;;;;;10.08;54.75;95727.69;4952883;29;20443;-55
2022/12/25 07:21:15;;;;;;;0.10;0.10;;;;;;;10.11;55.54;95735.13;4952407;29;20440;-58
2022/12/25 07:23:43;;;;;;;7.60;1.83;;;;;;;10.25;55.60;95733.84;4951855;29;20451;-58
2022/12/25 07:26:11;;;;;;;0.43;0.43;;;;;;;10.14;55.19;95739.91;4952494;29;21023;-60
2022/12/25 07:28:38;;;;;;;0.00;0.00;;;;;;;10.09;54.88;95734.56;4952602;29;20443;-60
2022/12/25 07:31:13;;;;;;;0.57;0.57;;;;;;;10.24;55.94;95744.56;4951932;29;21235;-61
2022/12/25 07:33:41;;;;;;;1.30;0.70;;;;;;;10.52;54.09;95755.03;4951381;29;20826;-64
2022/12/25 07:36:12;;;;;;;0.20;0.20;;;;;;;10.19;54.30;95746.03;4952286;29;20950;-62
2022/12/25 07:38:42;;;;;;;0.33;0.27;;;;;;;10.44;54.14;95753.59;4951923;28;20454;-63
2022/12/25 07:41:11;;;;;;;0.10;0.10;;;;;;;10.49;54.00;95751.06;4952393;28;20459;-58
2022/12/25 07:43:38;;;;;;;0.03;0.03;;;;;;;10.53;53.69;95756.66;4952727;28;20436;-63
2022/12/25 07:46:06;;;;;;;4.73;1.40;;;;;;;10.57;53.64;95761.19;4952251;28;20526;-61
2022/12/25 07:48:35;;;;;;;0.00;0.00;;;;;;;10.82;54.26;95760.84;4940056;28;20475;-61
2022/12/25 07:51:04;;;;;;;1.07;0.97;;;;;;;10.92;53.53;95761.81;4955690;28;20566;-58
2022/12/25 07:53:32;;;;;;;0.33;0.33;;;;;;;11.19;52.65;95768.06;4946942;28;20464;-60
2022/12/25 07:56:05;;;;;;;1.43;0.77;;;;;;;10.73;53.20;95763.03;4951654;28;20526;-62
2022/12/25 07:58:32;;;;;;;0.00;0.00;;;;;;;11.04;52.55;95775.66;4952753;28;20457;-61
2022/12/25 08:01:05;;;;;;;0.60;0.30;;;;;;;11.20;52.23;95772.25;4964393;28;20494;-61
2022/12/25 08:03:33;;;;;;;0.00;0.00;;;;;;;11.34;52.15;95775.38;4951867;29;20452;-62
2022/12/25 08:06:05;;;;;;;0.57;0.57;;;;;;;11.21;52.46;95781.72;4962598;28;20543;-59
2022/12/25 08:08:33;;;;;;;0.00;0.00;;;;;;;11.37;52.77;95784.59;4964122;28;20474;-59
2022/12/25 08:11:00;;;;;;;0.10;0.10;;;;;;;11.21;52.22;95786.97;4951918;28;20475;-63
2022/12/25 08:13:31;;;;;;;0.33;0.33;;;;;;;11.34;52.02;95790.31;4948940;29;20455;-61
2022/12/25 08:16:06;;;;;;;0.00;0.00;;;;;;;11.39;51.77;95793.00;4953544;28;20479;-64
2022/12/25 08:18:35;;;;;;;0.83;0.83;;;;;;;11.63;51.77;95789.19;4937827;28;20443;-64
2022/12/25 08:21:05;;;;;;;0.00;0.00;;;;;;;11.59;51.27;95793.31;4943788;28;21044;-69
2022/12/25 08:23:37;;;;;;;0.10;0.10;;;;;;;11.92;50.58;95788.09;4946407;28;20455;-60
2022/12/25 08:26:07;;;;;;;5.40;0.97;;;;;;;12.02;50.48;95778.50;4952010;28;20962;-65
2022/12/25 08:28:34;;;;;;;0.57;0.53;;;;;;;11.43;50.80;95778.38;4952491;28;20447;-66
2022/12/25 08:31:14;;;;;;;0.00;0.00;;;;;;;11.41;50.93;95775.19;4970837;28;20544;-56
2022/12/25 08:33:42;;;;;;;0.00;0.00;;;;;;;11.72;50.73;95772.84;4951554;29;20919;-58
2022/12/25 08:36:10;;;;;;;0.10;0.10;;;;;;;11.66;50.87;95767.78;4951676;29;21086;-63
2022/12/25 08:38:38;;;;;;;0.03;0.03;;;;;;;12.62;49.42;95762.69;4945820;28;20460;-69
2022/12/25 08:41:05;;;;;;;0.10;0.10;;;;;;;13.06;48.75;95763.44;4962142;28;20434;-68
2022/12/25 08:43:32;;;;;;;0.13;0.10;;;;;;;13.66;47.14;95773.66;4963223;28;20497;-65
2022/12/25 08:45:58;;;;;;;5.20;1.33;;;;;;;13.95;47.98;95764.38;4961701;28;20545;-61
2022/12/25 08:48:26;;;;;;;0.50;0.50;;;;;;;14.09;47.20;95778.66;4957564;28;20431;-59
2022/12/25 08:50:53;;;;;;;2.13;1.17;;;;;;;14.55;46.07;95777.88;4970693;28;20553;-58
2022/12/25 08:53:21;;;;;;;0.10;0.10;;;;;;;14.86;44.81;95776.91;4953636;28;20454;-69
2022/12/25 08:55:48;;;;;;;1.40;0.40;;;;;;;14.58;44.40;95776.56;4953626;28;20830;-62
2022/12/25 08:58:15;;;;;;;0.17;0.17;;;;;;;14.83;43.55;95777.44;4947426;28;20453;-64
2022/12/25 09:00:42;;;;;;;0.83;0.83;;;;;;;14.51;44.40;95782.06;4947570;28;20435;-62
2022/12/25 09:03:09;;;;;;;0.00;0.00;;;;;;;14.27;44.63;95780.91;4958329;28;20486;-61
2022/12/25 09:05:36;;;;;;;0.00;0.00;;;;;;;14.63;44.51;95785.28;4962616;28;20446;-63
2022/12/25 09:08:03;;;;;;;0.10;0.10;;;;;;;14.26;44.93;95784.56;4956468;28;20487;-63
2022/12/25 09:10:33;;;;;;;0.63;0.63;;;;;;;14.55;44.44;95785.78;4949760;28;20496;-64
2022/12/25 09:13:00;;;;;;;1.10;0.93;;;;;;;14.21;44.24;95787.97;4947628;28;20954;-66
2022/12/25 09:15:27;;;;;;;3.40;0.57;;;;;;;14.27;44.91;95791.44;4958743;28;20940;-66
2022/12/25 09:17:54;;;;;;;0.00;0.00;;;;;;;14.52;44.94;95786.31;4958565;28;20447;-60
2022/12/25 09:20:21;;;;;;;0.00;0.00;;;;;;;14.43;44.52;95795.75;4966775;28;20506;-61
2022/12/25 09:22:48;;;;;;;0.13;0.13;;;;;;;14.43;44.50;95777.31;4958379;28;20443;-63
2022/12/25 09:25:14;;;;;;;0.00;0.00;;;;;;;14.81;43.53;95782.19;4963310;28;20439;-66
2022/12/25 09:27:42;;;;;;;0.30;0.30;;;;;;;15.07;43.57;95781.16;4957514;28;21032;-64
2022/12/25 09:30:10;;;;;;;0.00;0.00;;;;;;;15.06;43.08;95784.88;4953297;28;21239;-64
2022/12/25 09:32:39;;;;;;;0.00;0.00;;;;;;;14.80;43.34;95785.06;4954748;28;20487;-61
2022/12/25 09:35:07;;;;;;;0.00;0.00;;;;;;;15.24;42.75;95784.38;4967059;28;20454;-66
2022/12/25 09:37:34;;;;;;;0.00;0.00;;;;;;;14.88;42.23;95785.38;4955367;28;20510;-63
2022/12/25 09:40:02;;;;;;;0.10;0.10;;;;;;;14.98;43.32;95788.00;4955060;28;20483;-58
2022/12/25 09:42:31;;;;;;;0.20;0.20;;;;;;;15.40;42.78;95792.31;4954152;28;20462;-64
2022/12/25 09:45:01;;;;;;;0.60;0.50;;;;;;;15.68;42.56;95779.41;4953802;28;20498;-67
2022/12/25 09:47:32;;;;;;;10.70;2.47;;;;;;;15.46;43.61;95783.34;4956138;28;20490;-66
2022/12/25 09:50:05;;;;;;;0.80;0.80;;;;;;;15.55;41.98;95800.25;4956714;28;20451;-65
2022/12/25 09:52:35;;;;;;;0.00;0.00;;;;;;;15.92;41.39;95783.06;4959443;28;20447;-65
2022/12/25 09:55:09;;;;;;;1.60;0.83;;;;;;;16.17;40.51;95784.88;4968855;28;21017;-63
2022/12/25 09:57:45;;;;;;;0.00;0.00;;;;;;;15.66;42.04;95768.28;4960357;28;20469;-60
2022/12/25 10:00:19;;;;;;;0.03;0.03;;;;;;;15.59;41.48;95764.34;4957442;28;20960;-55
2022/12/25 10:02:46;;;;;;;0.63;0.47;;;;;;;15.23;41.67;95769.59;4966597;28;20439;-66
2022/12/25 10:05:19;;;;;;;0.00;0.00;;;;;;;15.21;41.30;95771.72;4964754;28;21014;-60
2022/12/25 10:08:03;;;;;;;0.00;0.00;;;;;;;15.15;41.27;95772.75;4954959;28;21043;-62
2022/12/25 10:10:48;;;;;;;0.00;0.00;;;;;;;14.83;41.65;95769.53;4960688;28;20446;-63
2022/12/25 10:13:33;;;;;;;4.13;3.53;;;;;;;15.53;41.88;95768.06;4961739;28;20494;-61
2022/12/25 10:16:18;;;;;;;1.67;1.57;;;;;;;15.33;42.35;95760.09;4950070;28;20503;-64
2022/12/25 10:19:01;;;;;;;0.00;0.00;;;;;;;15.59;45.28;95761.69;4969483;28;20446;-63
2022/12/25 10:21:29;;;;;;;0.83;0.83;;;;;;;16.10;42.23;95757.91;4936742;28;20959;-66
2022/12/25 10:24:13;;;;;;;0.13;0.13;;;;;;;15.95;41.11;95756.09;4964093;28;20451;-64
2022/12/25 10:26:41;;;;;;;0.00;0.00;;;;;;;15.47;41.77;95759.34;4949710;28;20473;-64
2022/12/25 10:29:15;;;;;;;0.40;0.40;;;;;;;15.34;41.28;95761.66;4938348;28;20510;-61
2022/12/25 10:31:47;;;;;;;0.20;0.20;;;;;;;15.41;40.89;95770.16;4964388;28;20450;-60
2022/12/25 10:34:16;;;;;;;0.73;0.73;;;;;;;15.35;41.38;95757.97;4955118;28;20566;-65
2022/12/25 10:36:45;;;;;;;0.10;0.10;;;;;;;15.69;40.75;95753.78;4956345;28;20432;-70
2022/12/25 10:39:16;;;;;;;3.10;0.50;;;;;;;15.70;40.89;95755.34;4960620;28;20448;-68
2022/12/25 10:41:58;;;;;;;0.10;0.10;;;;;;;15.72;40.52;95761.97;4960738;28;20448;-66
2022/12/25 10:44:25;;;;;;;0.10;0.10;;;;;;;15.83;41.02;95768.81;4963001;28;20495;-63
2022/12/25 10:46:57;;;;;;;0.97;0.77;;;;;;;15.88;40.74;95754.78;4953491;28;20483;-67
2022/12/25 10:49:30;;;;;;;0.50;0.50;;;;;;;15.59;40.75;95757.22;4967204;28;20450;-62
2022/12/25 10:51:59;;;;;;;0.00;0.00;;;;;;;15.59;40.71;95761.69;4961023;28;20455;-62
2022/12/25 10:54:32;;;;;;;1.03;0.87;;;;;;;15.38;40.75;95768.03;4953166;28;20447;-63
2022/12/25 10:57:02;;;;;;;0.10;0.10;;;;;;;15.67;40.94;95767.25;4957731;28;20451;-68
2022/12/25 10:59:34;;;;;;;0.00;0.00;;;;;;;15.33;41.31;95768.03;4954398;28;20443;-60
2022/12/25 11:02:12;;;;;;;0.00;0.00;;;;;;;15.81;40.75;95759.56;4965221;28;20443;-67
2022/12/25 11:04:39;;;;;;;0.00;0.00;;;;;;;15.75;41.69;95745.56;4947455;28;20479;-59
2022/12/25 11:07:18;;;;;;;2.10;0.73;;;;;;;15.85;40.12;95739.47;4966213;28;20475;-64
2022/12/25 11:09:59;;;;;;;0.00;0.00;;;;;;;15.94;40.44;95746.59;4964474;28;20477;-61
2022/12/25 11:12:43;;;;;;;0.20;0.20;;;;;;;15.43;40.09;95746.91;4960013;28;20844;-66
2022/12/25 11:15:41;;;;;;;0.30;0.30;;;;;;;15.10;41.11;95754.28;4942059;28;20451;-62
2022/12/25 11:18:21;;;;;;;0.17;0.17;;;;;;;15.72;41.86;95755.88;4953339;28;20443;-64
2022/12/25 11:20:58;;;;;;;3.37;3.17;;;;;;;15.93;40.85;95741.59;4958386;28;20446;-70
2022/12/25 11:23:27;;;;;;;0.20;0.20;;;;;;;15.69;40.84;95751.13;4947745;28;20507;-64
2022/12/25 11:26:07;;;;;;;0.00;0.00;;;;;;;15.03;40.71;95752.94;4963654;28;20452;-67
2022/12/25 11:28:37;;;;;;;0.10;0.10;;;;;;;15.41;41.45;95749.81;4961455;28;20524;-66
2022/12/25 11:31:18;;;;;;;0.20;0.20;;;;;;;15.35;41.06;95750.03;4972135;28;20497;-64
2022/12/25 11:33:51;;;;;;;0.17;0.17;;;;;;;15.38;41.03;95754.81;4963719;28;20816;-63
2022/12/25 11:36:45;;;;;;;0.00;0.00;;;;;;;15.13;41.57;95745.00;4962331;28;20535;-58
2022/12/25 11:39:23;;;;;;;0.00;0.00;;;;;;;15.25;41.69;95742.94;4943495;28;20464;-65
2022/12/25 11:41:58;;;;;;;0.10;0.10;;;;;;;15.58;41.47;95749.56;4969302;28;20457;-63
2022/12/25 11:44:29;;;;;;;0.00;0.00;;;;;;;15.67;41.23;95761.16;4960825;28;20505;-63
2022/12/25 11:47:07;;;;;;;0.00;0.00;;;;;;;15.33;40.89;95749.53;4967913;28;20860;-62
2022/12/25 11:49:47;;;;;;;0.00;0.00;;;;;;;15.16;40.78;95737.34;4964615;28;20443;-65
2022/12/25 11:52:18;;;;;;;0.63;0.53;;;;;;;15.61;39.99;95752.47;4954889;28;20443;-64
2022/12/25 11:55:00;;;;;;;0.30;0.30;;;;;;;16.27;39.32;95747.81;4966636;28;20973;-67
2022/12/25 11:57:30;;;;;;;0.00;0.00;;;;;;;16.76;38.06;95746.06;4956358;28;20450;-62
2022/12/25 12:00:09;;;;;;;0.00;0.00;;;;;;;17.27;36.97;95735.94;4960142;28;20543;-62
2022/12/25 12:02:44;;;;;;;0.00;0.00;;;;;;;17.61;36.40;95738.59;4961084;28;20442;-65
2022/12/25 12:05:24;;;;;;;0.00;0.00;;;;;;;17.83;36.23;95744.22;4948736;28;20452;-64
2022/12/25 12:07:53;;;;;;;0.40;0.40;;;;;;;17.91;36.06;95740.97;4952331;28;20474;-60
2022/12/25 12:10:28;;;;;;;0.20;0.20;;;;;;;17.97;35.46;95730.00;4957743;28;20868;-60
2022/12/25 12:13:40;;;;;;;1.20;0.50;;;;;;;18.47;34.83;95723.38;4962424;28;20451;-63
2022/12/25 12:16:08;;;;;;;0.87;0.63;;;;;;;19.20;33.91;95727.16;4962699;28;20506;-62
2022/12/25 12:18:35;;;;;;;0.00;0.00;;;;;;;18.65;33.97;95727.94;4951388;28;20557;-61
2022/12/25 12:21:22;;;;;;;0.30;0.30;;;;;;;18.92;33.81;95725.44;4957329;28;20451;-63
2022/12/25 12:23:59;;;;;;;0.10;0.10;;;;;;;19.09;34.24;95725.72;4956672;28;20458;-59
2022/12/25 12:26:33;;;;;;;0.20;0.20;;;;;;;19.21;33.53;95733.25;4951727;29;20458;-62
2022/12/25 12:29:01;;;;;;;0.30;0.30;;;;;;;18.75;34.10;95729.66;4951851;29;20828;-63
2022/12/25 12:31:42;;;;;;;1.70;1.07;;;;;;;19.14;33.74;95733.63;4951899;29;20440;-65
2022/12/25 12:34:24;;;;;;;0.53;0.37;;;;;;;18.72;33.43;95738.22;4951368;29;20462;-65
2022/12/25 12:37:03;;;;;;;0.00;0.00;;;;;;;19.06;33.45;95736.94;4951317;29;20494;-65
2022/12/25 12:39:35;;;;;;;0.63;0.63;;;;;;;19.93;32.58;95729.16;4951502;29;20462;-60
2022/12/25 12:42:16;;;;;;;2.63;1.13;;;;;;;20.94;31.09;95735.97;4950955;29;20514;-63
2022/12/25 12:44:45;;;;;;;0.30;0.30;;;;;;;19.33;32.55;95746.13;4951051;29;20486;-63
2022/12/25 12:47:43;;;;;;;0.30;0.30;;;;;;;20.36;31.74;95743.84;4951833;29;20530;-62
2022/12/25 12:50:31;;;;;;;0.10;0.10;;;;;;;21.43;29.65;95730.59;4951525;29;21056;-63
2022/12/25 12:52:59;;;;;;;19.87;1.07;;;;;;;21.94;30.00;95740.81;4951014;29;20458;-60
2022/12/25 12:55:31;;;;;;;0.10;0.10;;;;;;;22.77;28.45;95738.03;4951953;29;20207;-60
2022/12/25 12:58:04;;;;;;;0.33;0.33;;;;;;;23.17;27.48;95744.84;4951313;29;20450;-63
2022/12/25 13:00:51;;;;;;;0.10;0.10;;;;;;;23.61;27.06;95740.31;4951528;29;20211;-63
2022/12/25 13:03:49;;;;;;;1.07;0.60;;;;;;;23.50;27.19;95745.19;4940364;29;20227;-64
2022/12/25 13:06:44;;;;;;;14.03;0.63;;;;;;;23.17;27.18;95743.28;4950026;29;20212;-63
2022/12/25 13:09:33;;;;;;;0.83;0.73;;;;;;;22.22;28.17;95739.56;4951045;28;20200;-62
2022/12/25 13:12:05;;;;;;;0.73;0.73;;;;;;;21.55;28.62;95738.06;4951342;29;20219;-59
2022/12/25 13:14:34;;;;;;;1.80;0.50;;;;;;;21.54;29.31;95736.47;4951217;29;20234;-61
2022/12/25 13:17:06;;;;;;;0.70;0.70;;;;;;;21.13;29.45;95748.06;4950775;29;20682;-63
2022/12/25 13:19:35;;;;;;;0.30;0.30;;;;;;;21.10;29.18;95746.03;4951244;29;20246;-60
2022/12/25 13:22:06;;;;;;;0.60;0.60;;;;;;;20.95;29.66;95741.00;4950544;29;20671;-64
2022/12/25 13:24:35;;;;;;;2.43;0.77;;;;;;;19.60;31.27;95751.53;4945791;29;20443;-59
2022/12/25 13:27:22;;;;;;;0.17;0.17;;;;;;;17.49;34.33;95754.06;4947662;29;20454;-61
2022/12/25 13:29:49;;;;;;;0.17;0.17;;;;;;;16.39;35.83;95760.72;4935843;29;20445;-63
2022/12/25 13:32:25;;;;;;;0.10;0.10;;;;;;;15.95;37.19;95757.94;4941272;29;20510;-66
2022/12/25 13:34:53;;;;;;;0.00;0.00;;;;;;;15.51;38.19;95764.88;4950412;29;20519;-62
2022/12/25 13:37:23;;;;;;;0.40;0.40;;;;;;;15.45;38.18;95773.84;4950090;29;20529;-65